createdAt,value
2022-10-31T00:00:02.321Z,97529.59
2022-10-31T00:02:39.592Z,97526.13
2022-10-31T00:05:06.338Z,97522.53
2022-10-31T00:07:33.146Z,97527.75
2022-10-31T00:09:59.829Z,97531.69
2022-10-31T00:12:26.963Z,97535.59
2022-10-31T00:14:53.581Z,97521.03
2022-10-31T00:17:20.194Z,97519.84
2022-10-31T00:19:46.922Z,97527.34
2022-10-31T00:22:13.477Z,97523.28
2022-10-31T00:24:40.133Z,97524.75
2022-10-31T00:27:06.718Z,97526.91
2022-10-31T00:29:33.308Z,97520.69
2022-10-31T00:31:59.876Z,97524.75
2022-10-31T00:34:26.446Z,97521.25
2022-10-31T00:36:52.961Z,97527.34
2022-10-31T00:39:19.726Z,97519.56
2022-10-31T00:41:46.869Z,97516.09
2022-10-31T00:44:13.783Z,97512.06
2022-10-31T00:46:40.339Z,97509.44
2022-10-31T00:49:06.978Z,97514.94
2022-10-31T00:51:33.573Z,97508.72
2022-10-31T00:54:00.544Z,97513.63
2022-10-31T00:56:27.106Z,97516.97
2022-10-31T00:58:53.809Z,97509.88
2022-10-31T01:01:21.071Z,97513.34
2022-10-31T01:03:47.778Z,97522.91
2022-10-31T01:06:14.357Z,97516.09
2022-10-31T01:08:41.019Z,97519.00
2022-10-31T01:11:20.831Z,97519.72
2022-10-31T01:13:48.213Z,97517.69
2022-10-31T01:16:16.193Z,97518.72
2022-10-31T01:18:42.836Z,97523.22
2022-10-31T01:21:13.286Z,97521.78
2022-10-31T01:23:40.185Z,97521.19
2022-10-31T01:26:10.331Z,97515.69
2022-10-31T01:28:38.001Z,97519.16
2022-10-31T01:31:08.754Z,97521.19
2022-10-31T01:33:35.960Z,97515.84
2022-10-31T01:36:03.046Z,97516.56
2022-10-31T01:38:29.643Z,97515.13
2022-10-31T01:40:56.255Z,97510.34
2022-10-31T01:43:22.885Z,97500.66
2022-10-31T01:45:53.344Z,97500.41
2022-10-31T01:48:21.901Z,97499.69
2022-10-31T01:50:48.804Z,97496.19
2022-10-31T01:53:15.539Z,97499.09
2022-10-31T01:55:44.153Z,97497.06
2022-10-31T01:58:15.625Z,97497.06
2022-10-31T02:00:46.602Z,97493.03
2022-10-31T02:03:13.252Z,97491.59
2022-10-31T02:05:39.784Z,97491.72
2022-10-31T02:08:12.474Z,97487.53
2022-10-31T02:10:39.109Z,97493.47
2022-10-31T02:13:08.302Z,97485.09
2022-10-31T02:15:41.950Z,97482.78
2022-10-31T02:18:08.657Z,97478.63
2022-10-31T02:20:55.521Z,97483.97
2022-10-31T02:23:25.093Z,97479.50
2022-10-31T02:26:10.691Z,97479.63
2022-10-31T02:28:45.439Z,97474.72
2022-10-31T02:31:24.535Z,97467.06
2022-10-31T02:33:59.248Z,97469.66
2022-10-31T02:36:25.893Z,97462.75
2022-10-31T02:39:01.484Z,97463.47
2022-10-31T02:41:38.891Z,97463.34
2022-10-31T02:44:14.729Z,97465.38
2022-10-31T02:46:53.790Z,97470.09
2022-10-31T02:49:40.028Z,97472.84
2022-10-31T02:52:18.180Z,97470.97
2022-10-31T02:54:45.013Z,97461.59
2022-10-31T02:57:11.600Z,97457.66
2022-10-31T02:59:38.348Z,97454.31
2022-10-31T03:02:18.568Z,97458.53
2022-10-31T03:04:47.099Z,97462.31
2022-10-31T03:07:20.907Z,97455.94
2022-10-31T03:10:07.777Z,97450.47
2022-10-31T03:12:44.476Z,97467.06
2022-10-31T03:15:17.896Z,97471.81
2022-10-31T03:17:51.228Z,97463.59
2022-10-31T03:20:17.832Z,97466.09
2022-10-31T03:22:44.387Z,97454.25
2022-10-31T03:25:11.081Z,97461.47
2022-10-31T03:27:37.647Z,97457.19
2022-10-31T03:30:05.489Z,97454.56
2022-10-31T03:32:38.873Z,97447.63
2022-10-31T03:35:06.248Z,97453.56
2022-10-31T03:37:33.582Z,97458.06
2022-10-31T03:40:01.097Z,97457.34
2022-10-31T03:42:29.539Z,97456.63
2022-10-31T03:44:59.301Z,97458.38
2022-10-31T03:47:27.530Z,97452.03
2022-10-31T03:49:54.146Z,97448.00
2022-10-31T03:52:25.741Z,97443.66
2022-10-31T03:55:15.653Z,97440.06
2022-10-31T03:57:43.948Z,97446.28
2022-10-31T04:00:11.697Z,97443.41
2022-10-31T04:03:07.123Z,97443.00
2022-10-31T04:05:35.850Z,97446.78
2022-10-31T04:08:03.774Z,97439.28
2022-10-31T04:10:33.294Z,97445.91
2022-10-31T04:13:11.375Z,97448.53
2022-10-31T04:15:50.262Z,97440.03
2022-10-31T04:18:18.136Z,97445.63
2022-10-31T04:20:44.702Z,97437.41
2022-10-31T04:23:23.616Z,97444.06
2022-10-31T04:25:51.080Z,97448.69
2022-10-31T04:30:46.021Z,97441.88
2022-10-31T04:33:12.557Z,97441.31
2022-10-31T04:35:39.406Z,97435.25
2022-10-31T04:38:06.044Z,97438.13
2022-10-31T04:40:33.336Z,97444.47
2022-10-31T04:45:50.064Z,97430.03
2022-10-31T04:48:17.425Z,97432.38
2022-10-31T04:50:45.050Z,97435.28
2022-10-31T04:53:13.309Z,97425.75
2022-10-31T04:56:00.869Z,97424.59
2022-10-31T04:58:35.574Z,97424.72
2022-10-31T05:01:04.670Z,97417.94
2022-10-31T05:03:33.327Z,97429.47
2022-10-31T05:05:59.853Z,97429.03
2022-10-31T05:08:26.410Z,97425.16
2022-10-31T05:10:54.188Z,97423.13
2022-10-31T05:16:11.825Z,97418.50
2022-10-31T05:18:40.900Z,97418.25
2022-10-31T05:21:39.660Z,97415.09
2022-10-31T05:24:07.644Z,97414.25
2022-10-31T05:26:35.650Z,97408.75
2022-10-31T05:29:02.241Z,97413.06
2022-10-31T05:31:29.540Z,97406.41
2022-10-31T05:33:56.380Z,97404.56
2022-10-31T05:36:41.365Z,97406.56
2022-10-31T05:39:18.057Z,97409.88
2022-10-31T05:41:48.644Z,97406.41
2022-10-31T05:44:20.098Z,97398.91
2022-10-31T05:47:06.973Z,97399.50
2022-10-31T05:49:52.064Z,97391.88
2022-10-31T05:52:24.368Z,97387.81
2022-10-31T05:54:59.994Z,97391.00
2022-10-31T05:57:29.143Z,97388.97
2022-10-31T05:59:55.925Z,97393.75
2022-10-31T06:02:24.049Z,97381.47
2022-10-31T06:05:16.038Z,97391.13
2022-10-31T06:07:42.777Z,97390.28
2022-10-31T06:10:09.570Z,97400.41
2022-10-31T06:12:38.649Z,97392.63
2022-10-31T06:15:23.763Z,97401.56
2022-10-31T06:18:04.600Z,97393.47
2022-10-31T06:20:35.404Z,97389.56
2022-10-31T06:23:04.282Z,97392.44
2022-10-31T06:25:32.577Z,97389.56
2022-10-31T06:27:59.242Z,97393.47
2022-10-31T06:30:34.822Z,97389.88
2022-10-31T06:33:03.779Z,97394.19
2022-10-31T06:35:30.668Z,97396.34
2022-10-31T06:37:57.517Z,97388.25
2022-10-31T06:40:32.950Z,97386.09
2022-10-31T06:43:18.466Z,97383.09
2022-10-31T06:45:45.793Z,97377.47
2022-10-31T06:48:17.898Z,97389.88
2022-10-31T06:51:20.116Z,97389.16
2022-10-31T06:53:49.260Z,97397.66
2022-10-31T06:56:17.270Z,97400.53
2022-10-31T06:58:55.751Z,97402.84
2022-10-31T07:01:42.413Z,97406.16
2022-10-31T07:04:12.556Z,97410.31
2022-10-31T07:06:39.288Z,97408.75
2022-10-31T07:09:06.276Z,97405.44
2022-10-31T07:11:32.896Z,97409.03
2022-10-31T07:13:59.903Z,97410.59
2022-10-31T07:16:26.685Z,97405.56
2022-10-31T07:18:53.554Z,97404.13
2022-10-31T07:21:20.898Z,97411.91
2022-10-31T07:23:50.528Z,97415.53
2022-10-31T07:26:40.108Z,97415.53
2022-10-31T07:29:07.397Z,97413.63
2022-10-31T07:31:33.933Z,97417.47
2022-10-31T07:34:07.989Z,97416.47
2022-10-31T07:36:53.097Z,97414.00
2022-10-31T07:39:20.226Z,97410.09
2022-10-31T07:41:46.905Z,97414.41
2022-10-31T07:44:18.073Z,97421.47
2022-10-31T07:47:13.321Z,97421.00
2022-10-31T07:49:58.282Z,97420.16
2022-10-31T07:52:45.254Z,97412.84
2022-10-31T07:55:31.218Z,97415.09
2022-10-31T07:58:02.719Z,97423.75
2022-10-31T08:00:30.854Z,97420.13
2022-10-31T08:03:04.932Z,97420.50
2022-10-31T08:05:50.336Z,97422.81
2022-10-31T08:08:32.216Z,97413.97
2022-10-31T08:11:02.208Z,97412.94
2022-10-31T08:13:30.450Z,97413.78
2022-10-31T08:16:04.182Z,97418.72
2022-10-31T08:18:32.944Z,97412.63
2022-10-31T08:21:00.329Z,97414.50
2022-10-31T08:23:26.965Z,97412.94
2022-10-31T08:25:55.250Z,97406.88
2022-10-31T08:28:23.554Z,97403.06
2022-10-31T08:30:52.147Z,97401.19
2022-10-31T08:33:41.666Z,97399.28
2022-10-31T08:36:08.446Z,97396.81
2022-10-31T08:38:50.228Z,97391.66
2022-10-31T08:41:17.711Z,97392.22
2022-10-31T08:43:44.293Z,97395.94
2022-10-31T08:46:11.376Z,97403.28
2022-10-31T08:48:39.748Z,97400.06
2022-10-31T08:51:06.731Z,97397.59
2022-10-31T08:53:33.338Z,97390.22
2022-10-31T08:56:23.373Z,97391.06
2022-10-31T08:58:50.337Z,97380.31
2022-10-31T09:01:20.083Z,97383.19
2022-10-31T09:03:47.093Z,97373.06
2022-10-31T09:06:13.886Z,97374.66
2022-10-31T09:08:40.589Z,97376.22
2022-10-31T09:11:07.698Z,97368.81
2022-10-31T09:13:54.260Z,97365.63
2022-10-31T09:16:39.334Z,97361.66
2022-10-31T09:19:11.609Z,97353.56
2022-10-31T09:21:38.547Z,97352.25
2022-10-31T09:24:05.352Z,97357.50
2022-10-31T09:26:32.154Z,97350.69
2022-10-31T09:29:10.529Z,97346.31
2022-10-31T09:31:43.723Z,97347.38
2022-10-31T09:34:26.205Z,97345.00
2022-10-31T09:37:05.193Z,97339.16
2022-10-31T09:39:34.117Z,97336.78
2022-10-31T09:42:13.961Z,97341.09
2022-10-31T09:44:50.779Z,97352.94
2022-10-31T09:47:31.874Z,97349.47
2022-10-31T09:50:20.059Z,97349.00
2022-10-31T09:52:55.870Z,97339.69
2022-10-31T09:55:25.735Z,97351.03
2022-10-31T09:57:52.436Z,97355.94
2022-10-31T10:00:21.826Z,97349.38
2022-10-31T10:02:50.879Z,97346.16
2022-10-31T10:05:19.548Z,97347.13
2022-10-31T10:07:49.539Z,97344.63
2022-10-31T10:10:50.414Z,97350.94
2022-10-31T10:13:58.698Z,97349.03
2022-10-31T10:16:43.311Z,97345.09
2022-10-31T10:19:31.562Z,97342.47
2022-10-31T10:22:04.091Z,97339.22
2022-10-31T10:25:02.885Z,97338.16
2022-10-31T10:27:29.515Z,97337.69
2022-10-31T10:30:00.160Z,97342.69
2022-10-31T10:32:28.624Z,97338.03
2022-10-31T10:34:56.237Z,97340.31
2022-10-31T10:37:25.831Z,97343.53
2022-10-31T10:39:54.584Z,97337.91
2022-10-31T10:42:39.982Z,97343.66
2022-10-31T10:45:37.712Z,97343.06
2022-10-31T10:48:10.887Z,97347.00
2022-10-31T10:50:42.760Z,97337.56
2022-10-31T10:53:22.342Z,97337.19
2022-10-31T10:55:57.139Z,97335.19
2022-10-31T10:58:23.742Z,97332.31
2022-10-31T11:00:50.933Z,97334.19
2022-10-31T11:03:18.067Z,97320.75
2022-10-31T11:05:46.456Z,97324.59
2022-10-31T11:08:13.149Z,97322.19
2022-10-31T11:10:39.749Z,97315.69
2022-10-31T11:13:19.569Z,97318.06
2022-10-31T11:16:05.736Z,97316.78
2022-10-31T11:18:34.219Z,97318.19
2022-10-31T11:21:01.688Z,97310.41
2022-10-31T11:23:28.954Z,97299.94
2022-10-31T11:25:55.558Z,97292.13
2022-10-31T11:28:22.288Z,97289.09
2022-10-31T11:30:49.769Z,97290.75
2022-10-31T11:33:19.317Z,97298.03
2022-10-31T11:35:46.094Z,97294.88
2022-10-31T11:38:16.267Z,97290.31
2022-10-31T11:40:51.200Z,97287.75
2022-10-31T11:43:18.133Z,97282.50
2022-10-31T11:45:44.632Z,97275.88
2022-10-31T11:48:18.693Z,97264.34
2022-10-31T11:50:48.825Z,97265.16
2022-10-31T11:53:20.005Z,97247.41
2022-10-31T11:55:46.889Z,97251.91
2022-10-31T11:58:20.941Z,97241.78
2022-10-31T12:00:51.802Z,97228.94
2022-10-31T12:03:24.636Z,97221.47
2022-10-31T12:06:02.401Z,97225.03
2022-10-31T12:08:31.128Z,97217.69
2022-10-31T12:11:06.515Z,97213.81
2022-10-31T12:13:38.800Z,97214.03
2022-10-31T12:16:08.568Z,97214.22
2022-10-31T12:18:41.795Z,97210.13
2022-10-31T12:21:08.346Z,97220.56
2022-10-31T12:23:53.372Z,97226.19
2022-10-31T12:26:31.991Z,97213.09
2022-10-31T12:29:14.912Z,97208.31
2022-10-31T12:31:45.062Z,97202.66
2022-10-31T12:34:14.661Z,97200.44
2022-10-31T12:36:41.181Z,97180.41
2022-10-31T12:39:14.307Z,97166.81
2022-10-31T12:41:40.885Z,97166.31
2022-10-31T12:44:08.253Z,97161.00
2022-10-31T12:46:37.969Z,97161.91
2022-10-31T12:49:17.815Z,97151.66
2022-10-31T12:51:50.683Z,97146.22
2022-10-31T12:54:37.588Z,97127.75
2022-10-31T12:57:16.654Z,97123.03
2022-10-31T12:59:47.073Z,97104.63
2022-10-31T13:02:16.959Z,97104.19
2022-10-31T13:04:46.044Z,97107.66
2022-10-31T13:07:14.352Z,97088.69
2022-10-31T13:09:46.498Z,97092.78
2022-10-31T13:12:13.921Z,97085.41
2022-10-31T13:14:42.862Z,97085.88
2022-10-31T13:17:13.237Z,97079.94
2022-10-31T13:19:41.325Z,97073.88
2022-10-31T13:22:08.960Z,97082.44
2022-10-31T13:25:01.820Z,97075.88
2022-10-31T13:27:32.097Z,97067.84
2022-10-31T13:30:02.357Z,97064.56
2022-10-31T13:32:30.630Z,97061.19
2022-10-31T13:34:57.592Z,97057.00
2022-10-31T13:37:37.762Z,97065.28
2022-10-31T13:40:07.418Z,97064.66
2022-10-31T13:42:33.930Z,97057.78
2022-10-31T13:45:20.828Z,97059.13
2022-10-31T13:48:18.613Z,97064.66
2022-10-31T13:51:05.546Z,97074.28
2022-10-31T13:53:41.184Z,97086.03
2022-10-31T13:56:14.509Z,97081.13
2022-10-31T13:58:41.878Z,97076.94
2022-10-31T14:01:11.096Z,97073.56
2022-10-31T14:04:04.677Z,97081.03
2022-10-31T14:06:24.713Z,97077.66
2022-10-31T14:08:51.810Z,97072.75
2022-10-31T14:11:32.839Z,97071.41
2022-10-31T14:14:02.784Z,97072.16
2022-10-31T14:16:32.568Z,97072.22
2022-10-31T14:19:05.985Z,97065.38
2022-10-31T14:21:37.658Z,97070.88
2022-10-31T14:24:13.765Z,97065.38
2022-10-31T14:26:40.363Z,97064.03
2022-10-31T14:29:15.921Z,97062.69
2022-10-31T14:31:43.696Z,97070.38
2022-10-31T14:34:10.189Z,97055.13
2022-10-31T14:36:44.021Z,97056.56
2022-10-31T14:39:43.088Z,97063.41
2022-10-31T14:42:12.433Z,97062.59
2022-10-31T14:44:38.958Z,97071.59
2022-10-31T14:47:14.857Z,97080.59
2022-10-31T14:49:50.064Z,97078.53
2022-10-31T14:52:17.338Z,97083.34
2022-10-31T14:54:53.193Z,97071.69
2022-10-31T14:57:30.211Z,97080.69
2022-10-31T15:00:00.691Z,97082.00
2022-10-31T15:02:53.649Z,97078.53
2022-10-31T15:05:20.273Z,97077.94
2022-10-31T15:07:50.691Z,97069.03
2022-10-31T15:10:24.717Z,97060.03
2022-10-31T15:12:51.345Z,97063.50
2022-10-31T15:15:24.803Z,97062.06
2022-10-31T15:17:55.449Z,97068.94
2022-10-31T15:20:24.144Z,97079.88
2022-10-31T15:22:50.717Z,97075.63
2022-10-31T15:25:18.645Z,97086.03
2022-10-31T15:27:45.545Z,97079.81
2022-10-31T15:30:17.657Z,97066.63
2022-10-31T15:32:57.281Z,97067.16
2022-10-31T15:35:25.581Z,97061.44
2022-10-31T15:37:55.544Z,97068.22
2022-10-31T15:40:23.123Z,97065.88
2022-10-31T15:42:53.964Z,97065.00
2022-10-31T15:45:23.277Z,97073.16
2022-10-31T15:48:04.161Z,97075.03
2022-10-31T15:50:38.741Z,97075.34
2022-10-31T15:53:05.873Z,97075.28
2022-10-31T15:55:34.235Z,97081.41
2022-10-31T15:58:05.769Z,97068.84
2022-10-31T16:00:33.654Z,97081.63
2022-10-31T16:03:07.767Z,97084.22
2022-10-31T16:05:45.332Z,97081.34
2022-10-31T16:08:30.364Z,97083.94
2022-10-31T16:11:15.163Z,97083.75
2022-10-31T16:14:02.030Z,97082.13
2022-10-31T16:16:35.130Z,97079.88
2022-10-31T16:19:02.667Z,97077.75
2022-10-31T16:21:33.439Z,97072.03
2022-10-31T16:24:05.762Z,97073.25
2022-10-31T16:26:32.857Z,97059.38
2022-10-31T16:29:04.951Z,97060.63
2022-10-31T16:31:37.919Z,97054.78
2022-10-31T16:34:14.959Z,97055.22
2022-10-31T16:36:41.646Z,97059.31
2022-10-31T16:39:08.364Z,97055.63
2022-10-31T16:41:41.837Z,97054.13
2022-10-31T16:44:34.856Z,97059.34
2022-10-31T16:47:23.442Z,97062.72
2022-10-31T16:49:53.121Z,97066.09
2022-10-31T16:52:19.661Z,97059.56
2022-10-31T16:54:46.305Z,97066.09
2022-10-31T16:57:16.861Z,97072.00
2022-10-31T16:59:43.616Z,97069.94
2022-10-31T17:02:16.769Z,97077.50
2022-10-31T17:04:43.441Z,97078.75
2022-10-31T17:07:09.973Z,97089.75
2022-10-31T17:09:36.543Z,97089.66
2022-10-31T17:12:03.360Z,97083.13
2022-10-31T17:14:30.057Z,97080.97
2022-10-31T17:16:59.481Z,97075.97
2022-10-31T17:19:26.185Z,97082.09
2022-10-31T17:21:52.698Z,97079.13
2022-10-31T17:24:19.364Z,97083.13
2022-10-31T17:26:47.217Z,97087.19
2022-10-31T17:29:14.180Z,97087.19
2022-10-31T17:31:40.795Z,97093.41
2022-10-31T17:34:08.626Z,97094.03
2022-10-31T17:36:35.435Z,97082.38
2022-10-31T17:39:03.383Z,97080.97
2022-10-31T17:41:29.921Z,97080.16
2022-10-31T17:43:56.872Z,97076.06
2022-10-31T17:46:23.461Z,97070.47
2022-10-31T17:48:50.049Z,97074.53
2022-10-31T17:51:16.623Z,97067.59
2022-10-31T17:53:43.249Z,97068.84
2022-10-31T17:56:09.971Z,97061.16
2022-10-31T17:58:36.976Z,97070.25
2022-10-31T18:01:10.594Z,97074.22
2022-10-31T18:03:37.556Z,97075.56
2022-10-31T18:06:04.165Z,97081.16
2022-10-31T18:08:31.626Z,97080.56
2022-10-31T18:11:01.272Z,97074.94
2022-10-31T18:13:28.243Z,97078.22
2022-10-31T18:15:55.032Z,97068.91
2022-10-31T18:18:21.809Z,97072.28
2022-10-31T18:20:48.385Z,97066.69
2022-10-31T18:23:15.125Z,97060.47
2022-10-31T18:25:43.444Z,97061.66
2022-10-31T18:28:10.290Z,97057.97
2022-10-31T18:30:40.910Z,97067.66
2022-10-31T18:33:07.853Z,97069.84
2022-10-31T18:35:38.103Z,97058.59
2022-10-31T18:38:06.279Z,97054.31
2022-10-31T18:40:33.706Z,97060.44
2022-10-31T18:43:00.363Z,97059.72
2022-10-31T18:45:46.430Z,97048.59
2022-10-31T18:48:14.464Z,97056.88
2022-10-31T18:50:41.311Z,97049.19
2022-10-31T18:53:07.946Z,97054.00
2022-10-31T18:55:34.582Z,97042.16
2022-10-31T18:58:01.181Z,97035.13
2022-10-31T19:00:27.732Z,97037.06
2022-10-31T19:02:57.464Z,97038.28
2022-10-31T19:05:24.101Z,97041.63
2022-10-31T19:07:50.598Z,97036.53
2022-10-31T19:10:17.251Z,97036.81
2022-10-31T19:12:43.809Z,97034.06
2022-10-31T19:15:10.622Z,97031.31
2022-10-31T19:17:37.180Z,97023.66
2022-10-31T19:20:03.953Z,97022.84
2022-10-31T19:22:31.100Z,97025.47
2022-10-31T19:24:58.496Z,97019.84
2022-10-31T19:27:28.211Z,97014.84
2022-10-31T19:29:54.775Z,97019.41
2022-10-31T19:32:21.267Z,97013.91
2022-10-31T19:34:47.837Z,97013.19
2022-10-31T19:37:14.701Z,97015.22
2022-10-31T19:39:44.199Z,97016.47
2022-10-31T19:42:11.887Z,97017.75
2022-10-31T19:44:38.509Z,97021.13
2022-10-31T19:47:05.169Z,97019.47
2022-10-31T19:49:31.864Z,97005.13
2022-10-31T19:51:58.382Z,97009.91
2022-10-31T19:54:25.052Z,97005.81
2022-10-31T19:56:51.633Z,97006.44
2022-10-31T19:59:18.253Z,97006.84
2022-10-31T20:01:44.819Z,97008.16
2022-10-31T20:04:11.626Z,96997.16
2022-10-31T20:06:39.353Z,97000.38
2022-10-31T20:09:09.748Z,97003.38
2022-10-31T20:11:36.816Z,96993.78
2022-10-31T20:14:04.005Z,96996.53
2022-10-31T20:16:30.739Z,96993.78
2022-10-31T20:18:59.538Z,96985.53
2022-10-31T20:21:27.349Z,96992.38
2022-10-31T20:23:57.790Z,96985.53
2022-10-31T20:26:24.405Z,96980.75
2022-10-31T20:28:50.913Z,96980.75
2022-10-31T20:31:20.776Z,96988.19
2022-10-31T20:33:47.758Z,96986.78
2022-10-31T20:36:14.701Z,96994.41
2022-10-31T20:38:41.964Z,96990.31
2022-10-31T20:41:09.978Z,96981.38
2022-10-31T20:43:36.698Z,96984.22
2022-10-31T20:46:04.239Z,96980.88
2022-10-31T20:48:31.050Z,96980.97
2022-10-31T20:51:01.344Z,96993.41
2022-10-31T20:53:28.036Z,96987.91
2022-10-31T20:56:07.218Z,96984.56
2022-10-31T20:58:35.021Z,96988.84
2022-10-31T21:01:01.720Z,96988.84
2022-10-31T21:03:28.416Z,96982.84
2022-10-31T21:05:56.006Z,96986.31
2022-10-31T21:08:22.759Z,96986.53
2022-10-31T21:10:49.282Z,96996.41
2022-10-31T21:13:16.261Z,96992.69
2022-10-31T21:15:42.967Z,96997.81
2022-10-31T21:18:09.823Z,96991.59
2022-10-31T21:20:39.196Z,96991.31
2022-10-31T21:23:05.812Z,97003.84
2022-10-31T21:25:33.104Z,96994.47
2022-10-31T21:28:00.757Z,97010.50
2022-10-31T21:30:27.505Z,97008.13
2022-10-31T21:32:54.135Z,97012.72
2022-10-31T21:35:20.660Z,97012.41
2022-10-31T21:37:47.270Z,96997.72
2022-10-31T21:40:13.969Z,96996.28
2022-10-31T21:42:40.598Z,97005.66
2022-10-31T21:45:07.357Z,97008.81
2022-10-31T21:47:33.963Z,97025.03
2022-10-31T21:50:00.464Z,97023.19
2022-10-31T21:52:27.086Z,97022.56
2022-10-31T21:54:53.634Z,97018.38
2022-10-31T21:59:51.757Z,97002.03
2022-10-31T22:02:18.333Z,97016.72
2022-10-31T22:04:45.626Z,97002.31
2022-10-31T22:07:12.236Z,97010.78
2022-10-31T22:09:41.065Z,97002.09
2022-10-31T22:12:09.161Z,97009.31
2022-10-31T22:14:35.757Z,97004.69
2022-10-31T22:17:02.476Z,96996.63
2022-10-31T22:19:29.028Z,96998.81
2022-10-31T22:21:55.660Z,97005.97
2022-10-31T22:24:22.159Z,96993.19
2022-10-31T22:26:48.746Z,97004.38
2022-10-31T22:29:16.217Z,96997.72
2022-10-31T22:31:43.894Z,97002.63
2022-10-31T22:34:10.644Z,97001.38
2022-10-31T22:36:37.962Z,96996.66
2022-10-31T22:39:04.800Z,97002.97
2022-10-31T22:41:32.215Z,97003.88
2022-10-31T22:43:59.117Z,97010.41
2022-10-31T22:46:26.690Z,97015.47
2022-10-31T22:48:54.365Z,97008.00
2022-10-31T22:51:22.105Z,97000.06
2022-10-31T22:53:48.972Z,96999.72
2022-10-31T22:56:16.856Z,97004.63
2022-10-31T22:58:43.611Z,97007.28
2022-10-31T23:01:15.055Z,97010.13
2022-10-31T23:03:42.065Z,97026.25
2022-10-31T23:06:10.102Z,97031.97
2022-10-31T23:08:37.004Z,97032.75
2022-10-31T23:11:07.405Z,97029.47
2022-10-31T23:13:52.646Z,97035.06
2022-10-31T23:16:19.289Z,97030.81
2022-10-31T23:18:49.981Z,97035.06
2022-10-31T23:21:37.262Z,97038.72
2022-10-31T23:24:03.913Z,97027.50
2022-10-31T23:26:49.137Z,97028.75
2022-10-31T23:29:15.708Z,97030.09
2022-10-31T23:31:42.228Z,97030.81
2022-10-31T23:34:08.807Z,97025.47
2022-10-31T23:36:35.417Z,97024.56
2022-10-31T23:39:02.040Z,97028.03
2022-10-31T23:41:28.585Z,97030.28
2022-10-31T23:43:55.245Z,97021.34
2022-10-31T23:46:21.841Z,97021.44
2022-10-31T23:48:49.431Z,97026.34
2022-10-31T23:51:15.943Z,97021.53
2022-10-31T23:53:46.047Z,97029.91
2022-10-31T23:56:13.068Z,97018.84
2022-10-31T23:58:39.636Z,97021.44
